Greeley West High School, Colorado
Current Conditions -  °F | °C
As of 2:55 PM on Thursday 27 Nov 2014 (Local Time) from KGXY Reporting Station
Clear Clear  
Wind Chill: 63°   Ceiling: Unl
Heat Index: 63°   Visibility: 10mi
Dew Point: 25°   Wind: 10mph
Humidity: 24%   Direction: 280°W
Pressure: 30.09"   Gusts: 20mph
Location:  40.41412°N, 104.7064°W
Report Text: KGXY 272155Z AUTO 28009G17KT 10SM CLR 17/M04 A3009 RMK AO1
Loading
Personal Weather Stations






























Interactive Weather Map New forecast layout! Learn more

10-Day Weather Forecast

Advertisements
Track Severe Weather on mobile